createdAt,value
2022-08-14T00:02:06.039Z,68.90
2022-08-14T00:04:48.312Z,68.87
2022-08-14T00:07:30.310Z,68.84
2022-08-14T00:10:53.031Z,68.88
2022-08-14T00:13:21.685Z,68.86
2022-08-14T00:16:04.158Z,68.77
2022-08-14T00:18:49.739Z,68.78
2022-08-14T00:21:51.001Z,68.90
2022-08-14T00:24:32.987Z,68.83
2022-08-14T00:27:17.135Z,68.86
2022-08-14T00:30:00.277Z,68.93
2022-08-14T00:32:51.947Z,68.98
2022-08-14T00:36:36.496Z,69.03
2022-08-14T00:38:37.590Z,69.08
2022-08-14T00:41:19.588Z,69.17
2022-08-14T00:44:02.507Z,69.14
2022-08-14T00:46:49.626Z,69.25
2022-08-14T00:49:38.185Z,69.34
2022-08-14T00:52:26.115Z,69.40
2022-08-14T00:55:10.092Z,69.52
2022-08-14T00:58:14.277Z,69.69
2022-08-14T01:00:57.737Z,69.84
2022-08-14T01:03:42.421Z,69.85
2022-08-14T01:06:30.369Z,69.96
2022-08-14T01:09:16.708Z,70.02
2022-08-14T01:12:02.658Z,70.12
2022-08-14T01:14:45.769Z,70.23
2022-08-14T01:17:50.628Z,70.38
2022-08-14T01:20:53.034Z,70.51
2022-08-14T01:23:46.826Z,70.36
2022-08-14T01:26:35.200Z,70.50
2022-08-14T01:29:43.167Z,70.61
2022-08-14T01:32:24.343Z,70.70
2022-08-14T01:35:20.849Z,70.69
2022-08-14T01:38:15.374Z,70.82
2022-08-14T01:40:58.906Z,70.88
2022-08-14T01:43:56.677Z,71.06
2022-08-14T01:46:47.376Z,71.07
2022-08-14T01:49:46.271Z,71.08
2022-08-14T01:52:59.977Z,71.37
2022-08-14T01:55:44.625Z,71.75
2022-08-14T01:58:29.861Z,71.86
2022-08-14T02:01:16.102Z,72.03
2022-08-14T02:03:59.495Z,72.06
2022-08-14T02:06:42.291Z,72.24
2022-08-14T02:09:24.904Z,72.20
2022-08-14T02:12:09.141Z,72.29
2022-08-14T02:15:01.429Z,72.32
2022-08-14T02:17:43.903Z,72.45
2022-08-14T02:20:26.121Z,72.57
2022-08-14T02:23:09.048Z,72.62
2022-08-14T02:25:54.551Z,72.72
2022-08-14T02:28:58.381Z,72.74
2022-08-14T02:31:44.062Z,72.76
2022-08-14T02:34:29.489Z,72.75
2022-08-14T02:37:12.917Z,72.88
2022-08-14T02:39:57.766Z,73.01
2022-08-14T02:42:40.491Z,73.02
2022-08-14T02:45:38.361Z,73.13
2022-08-14T02:49:00.958Z,73.14
2022-08-14T02:51:36.386Z,73.23
2022-08-14T02:54:20.101Z,73.29
2022-08-14T02:57:14.049Z,73.39
2022-08-14T02:59:59.553Z,73.55
2022-08-14T03:02:56.342Z,73.84
2022-08-14T03:05:41.810Z,73.79
2022-08-14T03:08:32.020Z,74.16
2022-08-14T03:11:14.477Z,74.11
2022-08-14T03:13:59.561Z,74.24
2022-08-14T03:16:41.954Z,74.34
2022-08-14T03:19:23.849Z,74.39
2022-08-14T03:22:09.207Z,74.53
2022-08-14T03:24:51.837Z,74.35
2022-08-14T03:27:35.524Z,74.54
2022-08-14T03:30:37.084Z,74.54
2022-08-14T03:33:22.103Z,74.53
2022-08-14T03:37:51.592Z,74.87
2022-08-14T03:39:22.017Z,74.68
2022-08-14T03:42:05.168Z,74.94
2022-08-14T03:45:19.412Z,75.03
2022-08-14T03:48:26.735Z,75.18
2022-08-14T03:51:14.298Z,75.44
2022-08-14T03:53:58.744Z,75.43
2022-08-14T03:56:44.994Z,75.98
2022-08-14T03:59:28.479Z,75.99
2022-08-14T04:02:33.408Z,76.02
2022-08-14T04:05:16.370Z,76.07
2022-08-14T04:08:08.432Z,76.15
2022-08-14T04:11:07.845Z,76.09
2022-08-14T04:13:52.282Z,76.37
2022-08-14T04:16:34.586Z,76.31
2022-08-14T04:19:20.653Z,76.23
2022-08-14T04:22:04.376Z,76.27
2022-08-14T04:24:46.518Z,76.38
2022-08-14T04:27:31.589Z,76.29
2022-08-14T04:30:39.494Z,76.28
2022-08-14T04:33:25.272Z,76.44
2022-08-14T04:36:09.289Z,76.55
2022-08-14T04:39:17.160Z,76.42
2022-08-14T04:42:18.007Z,76.50
2022-08-14T04:45:01.287Z,76.45
2022-08-14T04:48:03.380Z,76.65
2022-08-14T04:50:54.007Z,76.29
2022-08-14T04:53:42.872Z,76.40
2022-08-14T04:56:31.507Z,76.55
2022-08-14T04:59:16.043Z,76.45
2022-08-14T05:01:58.597Z,76.50
2022-08-14T05:04:45.464Z,76.56
2022-08-14T05:07:54.180Z,76.25
2022-08-14T05:10:46.250Z,76.45
2022-08-14T05:13:53.217Z,76.30
2022-08-14T05:16:36.740Z,76.46
2022-08-14T05:19:27.167Z,76.45
2022-08-14T05:22:15.702Z,76.63
2022-08-14T05:25:00.142Z,76.72
2022-08-14T05:27:42.755Z,76.61
2022-08-14T05:30:24.691Z,76.74
2022-08-14T05:33:07.777Z,76.78
2022-08-14T05:35:49.671Z,76.41
2022-08-14T05:38:42.162Z,76.53
2022-08-14T05:41:27.729Z,76.32
2022-08-14T05:44:30.681Z,76.33
2022-08-14T05:47:15.353Z,76.09
2022-08-14T05:49:58.779Z,75.82
2022-08-14T05:52:40.841Z,75.86
2022-08-14T05:55:23.365Z,75.64
2022-08-14T05:58:08.726Z,75.60
2022-08-14T06:00:52.403Z,75.41
2022-08-14T06:03:35.735Z,75.10
2022-08-14T06:06:18.857Z,75.00
2022-08-14T06:09:00.752Z,74.97
2022-08-14T06:11:43.198Z,74.49
2022-08-14T06:14:25.103Z,74.24
2022-08-14T06:17:08.591Z,74.27
2022-08-14T06:19:50.588Z,74.15
2022-08-14T06:22:32.383Z,74.03
2022-08-14T06:25:19.551Z,73.70
2022-08-14T06:28:02.087Z,73.44
2022-08-14T06:30:47.434Z,73.36
2022-08-14T06:35:01.437Z,73.43
2022-08-14T06:36:31.764Z,72.62
2022-08-14T06:39:13.658Z,72.61
2022-08-14T06:41:59.992Z,72.61
2022-08-14T06:44:42.568Z,72.22
2022-08-14T06:47:24.669Z,72.13
2022-08-14T06:50:12.507Z,71.87
2022-08-14T06:52:55.526Z,71.82
2022-08-14T06:55:40.787Z,71.62
2022-08-14T06:58:40.105Z,71.31
2022-08-14T07:01:40.839Z,70.94
2022-08-14T07:04:41.887Z,70.92
2022-08-14T07:07:24.499Z,70.39
2022-08-14T07:10:16.849Z,70.40
2022-08-14T07:13:03.606Z,70.32
2022-08-14T07:15:50.917Z,70.27
2022-08-14T07:18:37.494Z,69.92
2022-08-14T07:21:22.854Z,69.73
2022-08-14T07:24:04.960Z,69.73
2022-08-14T07:26:51.562Z,69.43
2022-08-14T07:29:33.560Z,69.13
2022-08-14T07:32:20.069Z,68.81
2022-08-14T07:35:04.570Z,69.11
2022-08-14T07:37:49.127Z,68.78
2022-08-14T07:40:35.367Z,68.29
2022-08-14T07:43:18.092Z,67.80
2022-08-14T07:46:04.748Z,66.19
2022-08-14T07:48:48.847Z,65.26
2022-08-14T07:51:37.129Z,63.81
2022-08-14T07:54:22.927Z,63.56
2022-08-14T07:57:24.804Z,63.28
2022-08-14T08:00:29.936Z,62.51
2022-08-14T08:03:15.130Z,61.90
2022-08-14T08:05:57.977Z,58.78
2022-08-14T08:08:40.589Z,58.42
2022-08-14T08:11:22.996Z,56.94
2022-08-14T08:14:16.329Z,56.34
2022-08-14T08:17:00.304Z,57.70
2022-08-14T08:19:42.098Z,57.72
2022-08-14T08:22:32.547Z,57.13
2022-08-14T08:25:18.163Z,56.15
2022-08-14T08:28:09.049Z,55.39
2022-08-14T08:31:08.269Z,54.57
2022-08-14T08:33:54.587Z,53.07
2022-08-14T08:36:46.783Z,51.12
2022-08-14T08:39:30.846Z,51.28
2022-08-14T08:42:41.233Z,52.38
2022-08-14T08:45:27.957Z,53.19
2022-08-14T08:48:20.692Z,51.76
2022-08-14T08:51:34.495Z,50.01
2022-08-14T08:54:19.899Z,48.26
2022-08-14T08:57:04.812Z,48.30
2022-08-14T08:59:54.951Z,47.72
2022-08-14T09:02:38.921Z,45.99
2022-08-14T09:05:25.449Z,46.37
2022-08-14T09:08:26.654Z,45.93
2022-08-14T09:11:19.909Z,46.83
2022-08-14T09:14:05.539Z,46.52
2022-08-14T09:16:51.702Z,44.78
2022-08-14T09:19:37.283Z,45.03
2022-08-14T09:22:47.653Z,44.50
2022-08-14T09:25:29.793Z,44.20
2022-08-14T09:28:27.146Z,43.80
2022-08-14T09:31:17.370Z,43.48
2022-08-14T09:34:26.910Z,43.98
2022-08-14T09:37:29.471Z,44.82
2022-08-14T09:40:40.445Z,45.09
2022-08-14T09:43:25.101Z,44.81
2022-08-14T09:46:25.738Z,45.23
2022-08-14T09:49:39.959Z,45.99
2022-08-14T09:52:34.236Z,46.57
2022-08-14T09:55:24.489Z,46.84
2022-08-14T09:58:19.476Z,46.46
2022-08-14T10:01:15.143Z,46.63
2022-08-14T10:03:59.745Z,46.93
2022-08-14T10:06:46.179Z,47.93
2022-08-14T10:09:33.462Z,47.13
2022-08-14T10:12:28.584Z,46.51
2022-08-14T10:15:27.831Z,46.51
2022-08-14T10:18:18.225Z,46.33
2022-08-14T10:21:09.571Z,46.10
2022-08-14T10:23:52.788Z,45.43
2022-08-14T10:26:36.791Z,45.26
2022-08-14T10:29:23.460Z,45.65
2022-08-14T10:32:17.897Z,45.78
2022-08-14T10:35:14.432Z,45.94
2022-08-14T10:38:00.874Z,45.13
2022-08-14T10:40:52.073Z,45.39
2022-08-14T10:44:05.282Z,45.54
2022-08-14T10:47:40.162Z,45.53
2022-08-14T10:50:14.966Z,44.98
2022-08-14T10:52:59.966Z,44.51
2022-08-14T10:55:45.688Z,45.04
2022-08-14T10:58:32.990Z,44.78
2022-08-14T11:01:16.944Z,45.30
2022-08-14T11:03:59.284Z,45.58
2022-08-14T11:06:52.670Z,45.80
2022-08-14T11:09:34.774Z,45.93
2022-08-14T11:12:33.705Z,46.12
2022-08-14T11:15:27.779Z,46.01
2022-08-14T11:18:20.428Z,46.79
2022-08-14T11:21:21.468Z,46.35
2022-08-14T11:24:54.270Z,46.67
2022-08-14T11:27:16.616Z,46.95
2022-08-14T11:30:49.803Z,46.56
2022-08-14T11:33:13.454Z,46.53
2022-08-14T11:36:02.062Z,46.87
2022-08-14T11:38:46.510Z,46.46
2022-08-14T11:41:29.286Z,46.46
2022-08-14T11:44:45.066Z,45.77
2022-08-14T11:47:21.443Z,45.74
2022-08-14T11:50:33.976Z,45.46
2022-08-14T11:53:32.304Z,45.62
2022-08-14T11:56:14.312Z,45.59
2022-08-14T11:59:00.326Z,44.99
2022-08-14T12:01:42.911Z,45.36
2022-08-14T12:04:32.151Z,45.60
2022-08-14T12:07:15.516Z,45.86
2022-08-14T12:09:59.480Z,46.12
2022-08-14T12:12:42.328Z,46.99
2022-08-14T12:15:44.854Z,48.61
2022-08-14T12:18:39.496Z,49.71
2022-08-14T12:21:25.533Z,52.12
2022-08-14T12:24:10.115Z,52.88
2022-08-14T12:27:13.430Z,53.70
2022-08-14T12:30:00.221Z,54.15
2022-08-14T12:32:48.648Z,56.09
2022-08-14T12:35:40.177Z,56.94
2022-08-14T12:38:43.660Z,57.90
2022-08-14T12:41:37.032Z,58.58
2022-08-14T12:44:30.509Z,58.88
2022-08-14T12:47:17.250Z,59.24
2022-08-14T12:50:00.147Z,59.36
2022-08-14T12:53:01.901Z,59.37
2022-08-14T12:56:18.304Z,58.77
2022-08-14T12:59:02.294Z,56.98
2022-08-14T13:02:01.783Z,56.31
2022-08-14T13:04:49.389Z,54.79
2022-08-14T13:07:33.248Z,54.04
2022-08-14T13:10:47.757Z,53.14
2022-08-14T13:13:19.438Z,52.06
2022-08-14T13:16:02.986Z,51.80
2022-08-14T13:19:03.616Z,51.89
2022-08-14T13:22:05.889Z,51.20
2022-08-14T13:24:50.652Z,50.46
2022-08-14T13:27:39.200Z,50.25
2022-08-14T13:30:25.022Z,50.44
2022-08-14T13:33:07.604Z,49.68
2022-08-14T13:35:57.231Z,49.30
2022-08-14T13:38:43.702Z,49.47
2022-08-14T13:41:34.700Z,48.86
2022-08-14T13:44:24.090Z,49.01
2022-08-14T13:47:08.905Z,49.49
2022-08-14T13:49:57.793Z,48.30
2022-08-14T13:52:54.767Z,48.24
2022-08-14T13:55:37.963Z,48.39
2022-08-14T13:58:34.101Z,48.68
2022-08-14T14:01:18.888Z,49.37
2022-08-14T14:04:04.669Z,49.54
2022-08-14T14:06:52.829Z,48.87
2022-08-14T14:09:52.686Z,49.17
2022-08-14T14:12:41.530Z,49.31
2022-08-14T14:15:33.898Z,48.66
2022-08-14T14:18:34.028Z,48.69
2022-08-14T14:21:18.793Z,48.65
2022-08-14T14:24:06.329Z,48.28
2022-08-14T14:26:50.519Z,47.94
2022-08-14T14:29:33.795Z,47.18
2022-08-14T14:32:32.058Z,47.38
2022-08-14T14:35:18.069Z,47.82
2022-08-14T14:38:00.519Z,48.20
2022-08-14T14:40:53.669Z,48.75
2022-08-14T14:43:47.207Z,48.97
2022-08-14T14:46:37.165Z,49.58
2022-08-14T14:49:21.848Z,49.64
2022-08-14T14:52:05.612Z,49.63
2022-08-14T14:54:48.814Z,49.92
2022-08-14T14:57:35.033Z,50.00
2022-08-14T15:00:20.334Z,50.06
2022-08-14T15:03:03.335Z,49.61
2022-08-14T15:05:46.128Z,49.55
2022-08-14T15:08:55.812Z,49.41
2022-08-14T15:11:32.960Z,48.32
2022-08-14T15:14:54.665Z,47.70
2022-08-14T15:17:17.434Z,47.91
2022-08-14T15:19:59.637Z,48.18
2022-08-14T15:22:43.595Z,48.47
2022-08-14T15:25:33.566Z,48.51
2022-08-14T15:28:21.176Z,48.41
2022-08-14T15:31:05.989Z,48.31
2022-08-14T15:34:43.850Z,48.30
2022-08-14T15:37:22.896Z,48.33
2022-08-14T15:40:10.131Z,48.68
2022-08-14T15:43:09.036Z,48.68
2022-08-14T15:45:51.727Z,48.64
2022-08-14T15:48:35.987Z,48.38
2022-08-14T15:51:28.245Z,48.19
2022-08-14T15:54:13.267Z,48.49
2022-08-14T15:57:04.678Z,48.22
2022-08-14T16:00:04.736Z,48.09
2022-08-14T16:02:54.953Z,48.63
2022-08-14T16:05:38.483Z,48.68
2022-08-14T16:08:26.619Z,48.40
2022-08-14T16:11:12.891Z,48.70
2022-08-14T16:13:57.474Z,48.68
2022-08-14T16:16:51.025Z,48.73
2022-08-14T16:22:58.694Z,49.11
2022-08-14T16:25:47.444Z,49.53
2022-08-14T16:28:37.255Z,49.83
2022-08-14T16:31:26.513Z,49.61
2022-08-14T16:34:46.139Z,49.87
2022-08-14T16:37:21.600Z,50.07
2022-08-14T16:40:07.514Z,50.28
2022-08-14T16:40:23.909Z,48.83
2022-08-14T16:43:03.909Z,50.48
2022-08-14T16:45:57.063Z,50.69
2022-08-14T16:48:55.105Z,50.86
2022-08-14T16:51:41.720Z,51.24
2022-08-14T16:54:35.387Z,51.77
2022-08-14T16:57:35.261Z,52.64
2022-08-14T17:00:28.810Z,53.02
2022-08-14T17:03:13.095Z,53.00
2022-08-14T17:05:55.973Z,53.11
2022-08-14T17:08:46.234Z,53.53
2022-08-14T17:11:31.634Z,53.75
2022-08-14T17:14:14.761Z,54.05
2022-08-14T17:16:59.433Z,54.19
2022-08-14T17:19:42.038Z,54.50
2022-08-14T17:22:47.992Z,54.77
2022-08-14T17:25:37.287Z,55.06
2022-08-14T17:28:51.504Z,55.24
2022-08-14T17:31:58.718Z,55.42
2022-08-14T17:34:53.122Z,55.61
2022-08-14T17:37:38.138Z,55.75
2022-08-14T17:40:26.150Z,55.84
2022-08-14T17:43:09.360Z,56.24
2022-08-14T17:45:51.866Z,56.21
2022-08-14T17:49:10.546Z,56.36
2022-08-14T17:51:58.946Z,56.41
2022-08-14T17:54:44.611Z,56.40
2022-08-14T17:57:28.366Z,56.46
2022-08-14T18:00:14.774Z,56.57
2022-08-14T18:02:58.099Z,56.58
2022-08-14T18:06:07.620Z,56.78
2022-08-14T18:08:47.803Z,57.08
2022-08-14T18:11:46.242Z,57.38
2022-08-14T18:14:33.088Z,57.46
2022-08-14T18:17:31.066Z,57.62
2022-08-14T18:21:23.031Z,58.24
2022-08-14T18:23:18.924Z,58.44
2022-08-14T18:26:05.329Z,58.71
2022-08-14T18:28:51.414Z,58.83
2022-08-14T18:31:42.157Z,59.08
2022-08-14T18:34:38.228Z,59.39
2022-08-14T18:37:33.971Z,59.79
2022-08-14T18:40:15.805Z,59.50
2022-08-14T18:43:03.526Z,59.65
2022-08-14T18:46:00.929Z,59.99
2022-08-14T18:48:51.093Z,60.30
2022-08-14T18:51:46.155Z,60.15
2022-08-14T18:54:34.386Z,60.60
2022-08-14T18:57:20.180Z,60.86
2022-08-14T19:00:40.272Z,60.94
2022-08-14T19:03:37.136Z,61.31
2022-08-14T19:06:19.525Z,61.57
2022-08-14T19:09:04.084Z,61.71
2022-08-14T19:11:50.481Z,61.92
2022-08-14T19:14:50.710Z,61.99
2022-08-14T19:18:14.266Z,62.11
2022-08-14T19:20:52.778Z,62.16
2022-08-14T19:23:42.157Z,62.14
2022-08-14T19:26:36.040Z,62.37
2022-08-14T19:29:38.338Z,62.43
2022-08-14T19:32:41.067Z,62.49
2022-08-14T19:35:49.048Z,62.58
2022-08-14T19:38:53.968Z,62.75
2022-08-14T19:41:38.029Z,62.71
2022-08-14T19:44:31.750Z,62.83
2022-08-14T19:47:15.200Z,62.93
2022-08-14T19:50:08.358Z,63.24
2022-08-14T19:53:16.602Z,63.39
2022-08-14T19:56:04.912Z,63.57
2022-08-14T19:58:54.942Z,63.70
2022-08-14T20:01:40.414Z,63.94
2022-08-14T20:04:45.962Z,64.15
2022-08-14T20:07:59.092Z,64.49
2022-08-14T20:11:08.194Z,64.83
2022-08-14T20:13:40.980Z,65.31
2022-08-14T20:16:31.881Z,65.30
2022-08-14T20:19:17.819Z,65.40
2022-08-14T20:22:04.849Z,65.64
2022-08-14T20:25:16.649Z,65.84
2022-08-14T20:27:59.401Z,65.89
2022-08-14T20:30:41.725Z,65.84
2022-08-14T20:33:24.664Z,66.01
2022-08-14T20:36:25.930Z,65.96
2022-08-14T20:39:15.763Z,66.27
2022-08-14T20:42:19.008Z,66.39
2022-08-14T20:45:21.362Z,66.41
2022-08-14T20:48:09.139Z,66.52
2022-08-14T20:50:52.091Z,66.40
2022-08-14T20:53:36.179Z,66.63
2022-08-14T20:56:30.333Z,66.67
2022-08-14T20:59:19.185Z,66.85
2022-08-14T21:02:29.513Z,66.96
2022-08-14T21:05:16.122Z,66.90
2022-08-14T21:08:08.502Z,66.99
2022-08-14T21:11:03.018Z,67.36
2022-08-14T21:14:20.944Z,67.33
2022-08-14T21:16:58.058Z,67.40
2022-08-14T21:19:40.720Z,67.55
2022-08-14T21:22:25.546Z,67.79
2022-08-14T21:25:10.869Z,67.78
2022-08-14T21:27:56.650Z,68.00
2022-08-14T21:30:47.087Z,68.16
2022-08-14T21:33:35.788Z,68.44
2022-08-14T21:36:21.988Z,68.54
2022-08-14T21:39:04.404Z,68.74
2022-08-14T21:41:50.246Z,68.96
2022-08-14T21:44:43.463Z,69.23
2022-08-14T21:47:26.270Z,69.33
2022-08-14T21:50:56.504Z,69.62
2022-08-14T21:53:14.560Z,69.91
2022-08-14T21:55:57.457Z,70.04
2022-08-14T21:58:52.785Z,70.10
2022-08-14T22:02:01.331Z,70.20
2022-08-14T22:04:41.348Z,70.48
2022-08-14T22:07:29.234Z,70.48
2022-08-14T22:10:14.289Z,70.60
2022-08-14T22:13:05.440Z,70.61
2022-08-14T22:15:50.132Z,70.80
2022-08-14T22:18:34.473Z,70.93
2022-08-14T22:21:19.645Z,71.07
2022-08-14T22:24:01.746Z,71.41
2022-08-14T22:26:52.656Z,71.66
2022-08-14T22:29:35.499Z,71.78
2022-08-14T22:32:18.798Z,71.84
2022-08-14T22:35:09.176Z,72.21
2022-08-14T22:38:01.485Z,72.39
2022-08-14T22:41:18.219Z,72.79
2022-08-14T22:44:01.040Z,72.92
2022-08-14T22:46:45.311Z,73.21
2022-08-14T22:50:31.938Z,73.08
2022-08-14T22:52:33.242Z,73.34
2022-08-14T22:55:16.140Z,73.52
2022-08-14T22:57:59.416Z,73.36
2022-08-14T23:00:42.032Z,73.87
2022-08-14T23:03:25.261Z,73.86
2022-08-14T23:07:02.123Z,73.96
2022-08-14T23:09:36.137Z,74.16
2022-08-14T23:12:28.273Z,74.04
2022-08-14T23:15:13.457Z,74.24
2022-08-14T23:17:55.769Z,74.36
2022-08-14T23:20:39.736Z,74.40
2022-08-14T23:23:23.027Z,74.55
2022-08-14T23:26:47.992Z,74.65
2022-08-14T23:29:11.565Z,74.62
2022-08-14T23:31:57.015Z,74.68
2022-08-14T23:34:47.821Z,74.75
2022-08-14T23:37:33.586Z,75.05
2022-08-14T23:40:26.359Z,75.07
2022-08-14T23:43:14.798Z,75.28
2022-08-14T23:45:57.878Z,75.31
2022-08-14T23:48:40.826Z,75.46
2022-08-14T23:51:28.661Z,75.60
2022-08-14T23:54:48.944Z,75.81
2022-08-14T23:57:20.511Z,75.95
